createdAt,value
2023-05-24T00:01:59.193Z,2.83
2023-05-24T00:05:03.269Z,2.83
2023-05-24T00:08:07.822Z,3.10
2023-05-24T00:11:12.047Z,3.35
2023-05-24T00:14:16.171Z,3.30
2023-05-24T00:17:20.262Z,2.90
2023-05-24T00:20:24.919Z,2.90
2023-05-24T00:23:28.830Z,3.70
2023-05-24T00:26:33.448Z,3.25
2023-05-24T00:29:37.300Z,3.33
2023-05-24T00:32:41.487Z,3.33
2023-05-24T00:35:45.968Z,3.22
2023-05-24T00:38:50.232Z,3.00
2023-05-24T00:41:54.363Z,2.95
2023-05-24T00:44:58.058Z,2.95
2023-05-24T00:48:02.108Z,3.20
2023-05-24T00:51:06.685Z,3.63
2023-05-24T00:54:13.808Z,3.55
2023-05-24T00:57:19.027Z,3.22
2023-05-24T01:00:24.163Z,3.00
2023-05-24T01:03:29.396Z,2.85
2023-05-24T01:06:44.883Z,3.15
2023-05-24T01:10:14.688Z,2.88
2023-05-24T01:13:21.491Z,2.90
2023-05-24T01:16:58.228Z,3.10
2023-05-24T01:20:08.939Z,3.90
2023-05-24T01:23:34.281Z,3.53
2023-05-24T01:26:51.813Z,3.63
2023-05-24T01:29:56.939Z,3.08
2023-05-24T01:33:01.352Z,2.65
2023-05-24T01:36:06.322Z,2.58
2023-05-24T01:39:10.301Z,3.03
2023-05-24T01:42:25.985Z,2.97
2023-05-24T01:45:32.760Z,3.10
2023-05-24T01:48:59.788Z,3.20
2023-05-24T01:52:08.214Z,2.85
2023-05-24T01:55:16.648Z,2.97
2023-05-24T01:58:22.074Z,2.90
2023-05-24T02:01:26.902Z,2.95
2023-05-24T02:04:31.430Z,3.10
2023-05-24T02:07:35.952Z,2.92
2023-05-24T02:10:40.871Z,2.80
2023-05-24T02:13:45.079Z,3.03
2023-05-24T02:16:50.651Z,3.05
2023-05-24T02:19:55.124Z,2.85
2023-05-24T02:23:00.232Z,2.83
2023-05-24T02:26:04.543Z,3.15
2023-05-24T02:29:08.692Z,2.95
2023-05-24T02:32:13.308Z,3.05
2023-05-24T02:35:17.173Z,2.70
2023-05-24T02:38:21.405Z,3.17
2023-05-24T02:41:26.492Z,3.20
2023-05-24T02:44:30.367Z,3.30
2023-05-24T02:47:34.541Z,2.97
2023-05-24T02:50:38.854Z,2.83
2023-05-24T02:53:43.501Z,2.50
2023-05-24T02:56:48.162Z,3.00
2023-05-24T02:59:52.918Z,2.75
2023-05-24T03:03:00.743Z,3.17
2023-05-24T03:06:09.225Z,3.33
2023-05-24T03:09:13.115Z,3.20
2023-05-24T03:12:17.483Z,3.38
2023-05-24T03:15:21.335Z,3.30
2023-05-24T03:18:25.583Z,3.17
2023-05-24T03:21:29.552Z,3.33
2023-05-24T03:24:33.554Z,3.65
2023-05-24T03:27:37.636Z,3.90
2023-05-24T03:30:42.292Z,3.83
2023-05-24T03:33:49.447Z,3.75
2023-05-24T03:36:53.365Z,3.63
2023-05-24T03:39:57.360Z,3.35
2023-05-24T03:43:02.384Z,3.28
2023-05-24T03:46:08.857Z,3.80
2023-05-24T03:49:13.177Z,3.50
2023-05-24T03:52:17.165Z,3.42
2023-05-24T03:55:21.498Z,3.80
2023-05-24T03:58:25.515Z,3.65
2023-05-24T04:01:34.971Z,4.00
2023-05-24T04:04:39.739Z,3.80
2023-05-24T04:07:45.359Z,3.75
2023-05-24T04:10:49.648Z,3.85
2023-05-24T04:13:57.701Z,3.60
2023-05-24T04:17:04.430Z,4.10
2023-05-24T04:20:09.671Z,4.00
2023-05-24T04:23:13.397Z,4.05
2023-05-24T04:26:17.822Z,3.70
2023-05-24T04:29:25.865Z,3.70
2023-05-24T04:32:30.473Z,3.42
2023-05-24T04:35:35.506Z,3.85
2023-05-24T04:38:40.854Z,5.13
2023-05-24T04:41:45.613Z,3.90
2023-05-24T04:44:49.523Z,4.40
2023-05-24T04:47:53.835Z,4.18
2023-05-24T04:50:58.638Z,3.70
2023-05-24T04:54:08.578Z,3.83
2023-05-24T04:57:13.162Z,4.13
2023-05-24T05:00:17.967Z,5.75
2023-05-24T05:03:22.297Z,4.05
2023-05-24T05:06:26.513Z,4.57
2023-05-24T05:09:30.437Z,4.10
2023-05-24T05:12:34.579Z,4.03
2023-05-24T05:15:39.634Z,4.65
2023-05-24T05:18:45.264Z,4.30
2023-05-24T05:21:49.110Z,4.03
2023-05-24T05:24:53.237Z,4.35
2023-05-24T05:27:57.294Z,4.15
2023-05-24T05:31:01.524Z,3.90
2023-05-24T05:34:09.630Z,4.07
2023-05-24T05:37:14.186Z,4.20
2023-05-24T05:40:18.566Z,4.28
2023-05-24T05:43:22.736Z,4.32
2023-05-24T05:46:26.886Z,4.75
2023-05-24T05:49:31.793Z,5.30
2023-05-24T05:52:35.713Z,4.18
2023-05-24T05:55:39.722Z,4.07
2023-05-24T05:58:43.831Z,4.35
2023-05-24T06:01:48.975Z,4.80
2023-05-24T06:04:53.379Z,4.80
2023-05-24T06:07:57.336Z,4.88
2023-05-24T06:11:02.057Z,4.18
2023-05-24T06:14:06.006Z,4.90
2023-05-24T06:17:11.287Z,4.78
2023-05-24T06:20:15.728Z,4.55
2023-05-24T06:23:19.964Z,4.30
2023-05-24T06:26:23.688Z,4.20
2023-05-24T06:29:27.627Z,4.22
2023-05-24T06:32:32.033Z,4.47
2023-05-24T06:35:36.420Z,4.78
2023-05-24T06:38:41.160Z,4.57
2023-05-24T06:41:46.902Z,4.55
2023-05-24T06:44:50.952Z,4.72
2023-05-24T06:47:55.257Z,3.95
2023-05-24T06:50:59.463Z,4.32
2023-05-24T06:54:04.257Z,4.50
2023-05-24T06:57:08.927Z,4.28
2023-05-24T07:00:13.381Z,6.10
2023-05-24T07:03:17.513Z,7.38
2023-05-24T07:06:21.970Z,4.88
2023-05-24T07:09:26.533Z,8.15
2023-05-24T07:12:30.552Z,4.85
2023-05-24T07:15:34.395Z,5.22
2023-05-24T07:18:38.832Z,5.32
2023-05-24T07:21:43.220Z,4.53
2023-05-24T07:24:47.402Z,4.90
2023-05-24T07:27:51.546Z,5.10
2023-05-24T07:30:55.680Z,5.22
2023-05-24T07:33:59.868Z,5.93
2023-05-24T07:37:04.551Z,4.70
2023-05-24T07:40:12.441Z,4.90
2023-05-24T07:43:16.759Z,5.35
2023-05-24T07:46:21.514Z,5.13
2023-05-24T07:49:25.667Z,4.75
2023-05-24T07:52:30.266Z,4.07
2023-05-24T07:55:34.502Z,5.53
2023-05-24T07:58:40.672Z,4.55
2023-05-24T08:01:44.534Z,5.15
2023-05-24T08:04:48.585Z,4.75
2023-05-24T08:07:53.525Z,4.57
2023-05-24T08:10:57.693Z,5.00
2023-05-24T08:14:01.958Z,5.35
2023-05-24T08:17:06.254Z,5.32
2023-05-24T08:20:10.397Z,5.72
2023-05-24T08:23:14.652Z,4.78
2023-05-24T08:26:19.322Z,4.43
2023-05-24T08:29:24.152Z,5.57
2023-05-24T08:32:28.327Z,4.78
2023-05-24T08:35:32.581Z,5.05
2023-05-24T08:38:36.897Z,4.70
2023-05-24T08:41:41.518Z,4.50
2023-05-24T08:44:54.094Z,4.40
2023-05-24T08:47:59.684Z,4.63
2023-05-24T08:51:05.041Z,5.28
2023-05-24T08:54:12.156Z,5.60
2023-05-24T08:57:17.501Z,8.35
2023-05-24T09:00:22.207Z,6.43
2023-05-24T09:03:26.542Z,5.45
2023-05-24T09:06:30.704Z,5.47
2023-05-24T09:09:35.406Z,5.05
2023-05-24T09:12:43.527Z,4.40
2023-05-24T09:15:47.771Z,4.68
2023-05-24T09:18:52.553Z,4.40
2023-05-24T09:21:57.799Z,4.15
2023-05-24T09:25:02.541Z,3.95
2023-05-24T09:28:09.764Z,4.57
2023-05-24T09:31:13.938Z,4.80
2023-05-24T09:34:18.300Z,3.90
2023-05-24T09:37:29.935Z,5.00
2023-05-24T09:40:36.451Z,4.10
2023-05-24T09:43:50.211Z,4.45
2023-05-24T09:47:01.479Z,4.15
2023-05-24T09:50:12.838Z,4.60
2023-05-24T09:53:18.821Z,5.55
2023-05-24T09:56:23.734Z,4.45
2023-05-24T09:59:28.247Z,4.70
2023-05-24T10:02:41.569Z,4.05
2023-05-24T10:05:56.552Z,4.25
2023-05-24T10:09:00.730Z,3.75
2023-05-24T10:12:07.051Z,4.05
2023-05-24T10:15:12.162Z,4.00
2023-05-24T10:18:16.475Z,3.85
2023-05-24T10:21:21.837Z,5.00
2023-05-24T10:24:29.622Z,4.00
2023-05-24T10:27:33.916Z,4.03
2023-05-24T10:30:48.314Z,4.72
2023-05-24T10:33:57.160Z,3.70
2023-05-24T10:37:06.089Z,3.30
2023-05-24T10:40:20.857Z,4.03
2023-05-24T10:43:24.692Z,4.30
2023-05-24T10:46:29.308Z,4.30
2023-05-24T10:49:33.860Z,5.05
2023-05-24T10:52:38.009Z,4.55
2023-05-24T10:55:53.956Z,4.25
2023-05-24T10:58:58.046Z,3.95
2023-05-24T11:02:03.769Z,4.47
2023-05-24T11:05:09.153Z,4.72
2023-05-24T11:08:13.769Z,4.30
2023-05-24T11:11:30.420Z,4.28
2023-05-24T11:14:41.480Z,4.00
2023-05-24T11:18:12.674Z,4.50
2023-05-24T11:21:17.030Z,5.43
2023-05-24T11:24:22.149Z,4.03
2023-05-24T11:27:26.735Z,4.63
2023-05-24T11:30:34.041Z,5.45
2023-05-24T11:33:42.479Z,3.10
2023-05-24T11:36:47.291Z,3.03
2023-05-24T11:39:54.100Z,2.95
2023-05-24T11:42:58.658Z,2.78
2023-05-24T11:46:02.768Z,2.40
2023-05-24T11:49:07.169Z,3.50
2023-05-24T11:52:10.983Z,2.20
2023-05-24T11:55:17.067Z,2.60
2023-05-24T11:58:29.659Z,2.10
2023-05-24T12:01:33.546Z,3.00
2023-05-24T12:04:37.619Z,2.95
2023-05-24T12:07:41.992Z,3.00
2023-05-24T12:10:48.882Z,3.47
2023-05-24T12:13:52.831Z,3.28
2023-05-24T12:16:57.451Z,3.40
2023-05-24T12:20:03.307Z,2.88
2023-05-24T12:23:08.881Z,3.45
2023-05-24T12:26:13.640Z,3.25
2023-05-24T12:29:19.491Z,3.45
2023-05-24T12:32:23.878Z,3.25
2023-05-24T12:35:27.910Z,3.67
2023-05-24T12:38:31.834Z,3.47
2023-05-24T12:41:36.459Z,3.97
2023-05-24T12:44:40.739Z,3.30
2023-05-24T12:47:45.107Z,3.92
2023-05-24T12:50:51.118Z,3.60
2023-05-24T12:53:55.172Z,3.95
2023-05-24T12:57:05.187Z,3.60
2023-05-24T13:00:10.977Z,3.95
2023-05-24T13:03:14.860Z,3.90
2023-05-24T13:06:19.082Z,3.83
2023-05-24T13:09:24.131Z,3.72
2023-05-24T13:12:28.742Z,4.07
2023-05-24T13:15:33.224Z,3.50
2023-05-24T13:18:38.256Z,3.60
2023-05-24T13:21:42.574Z,4.00
2023-05-24T13:24:46.987Z,11.38
2023-05-24T13:27:51.330Z,3.25
2023-05-24T13:30:55.829Z,3.20
2023-05-24T13:34:00.200Z,3.65
2023-05-24T13:37:04.000Z,4.43
2023-05-24T13:40:09.005Z,3.47
2023-05-24T13:43:13.089Z,3.40
2023-05-24T13:46:17.479Z,3.30
2023-05-24T13:49:21.634Z,3.83
2023-05-24T13:52:26.237Z,3.28
2023-05-24T13:55:38.605Z,3.53
2023-05-24T13:58:43.250Z,3.65
2023-05-24T14:01:47.795Z,4.00
2023-05-24T14:04:52.833Z,4.78
2023-05-24T14:08:00.273Z,3.83
2023-05-24T14:11:04.536Z,3.60
2023-05-24T14:17:15.943Z,3.78
2023-05-24T14:20:20.235Z,4.38
2023-05-24T14:23:24.381Z,4.05
2023-05-24T14:26:28.551Z,3.20
2023-05-24T14:29:33.178Z,3.42
2023-05-24T14:32:37.752Z,3.03
2023-05-24T14:35:42.234Z,6.55
2023-05-24T14:38:46.649Z,2.10
2023-05-24T14:41:50.928Z,2.60
2023-05-24T14:44:55.132Z,2.78
2023-05-24T14:47:59.176Z,2.90
2023-05-24T14:51:03.206Z,2.47
2023-05-24T14:54:07.428Z,2.45
2023-05-24T14:57:12.185Z,2.30
2023-05-24T15:00:18.561Z,2.33
2023-05-24T15:03:23.974Z,2.28
2023-05-24T15:06:29.904Z,2.53
2023-05-24T15:09:34.226Z,2.70
2023-05-24T15:12:38.424Z,2.20
2023-05-24T15:15:43.257Z,2.58
2023-05-24T15:18:47.793Z,2.38
2023-05-24T15:21:51.948Z,2.20
2023-05-24T15:24:55.652Z,2.50
2023-05-24T15:27:59.547Z,2.33
2023-05-24T15:31:03.924Z,2.78
2023-05-24T15:34:08.340Z,2.30
2023-05-24T15:37:12.321Z,2.55
2023-05-24T15:40:16.231Z,2.72
2023-05-24T15:43:20.267Z,2.38
2023-05-24T15:46:24.589Z,2.50
2023-05-24T15:49:28.664Z,2.80
2023-05-24T15:52:33.666Z,2.78
2023-05-24T15:55:38.946Z,2.40
2023-05-24T15:58:43.530Z,2.72
2023-05-24T16:01:47.634Z,2.95
2023-05-24T16:04:51.833Z,2.35
2023-05-24T16:07:55.991Z,2.55
2023-05-24T16:10:59.864Z,2.47
2023-05-24T16:14:03.990Z,2.50
2023-05-24T16:17:08.554Z,2.22
2023-05-24T16:20:12.751Z,2.80
2023-05-24T16:23:17.301Z,2.65
2023-05-24T16:26:21.293Z,2.70
2023-05-24T16:29:26.589Z,2.72
2023-05-24T16:32:30.972Z,3.00
2023-05-24T16:35:35.100Z,2.55
2023-05-24T16:38:39.799Z,2.75
2023-05-24T16:41:43.823Z,2.80
2023-05-24T16:44:47.913Z,3.03
2023-05-24T16:47:52.345Z,2.83
2023-05-24T16:50:56.739Z,2.30
2023-05-24T16:54:00.779Z,2.80
2023-05-24T16:57:05.171Z,2.78
2023-05-24T17:00:09.983Z,2.90
2023-05-24T17:03:14.599Z,2.40
2023-05-24T17:06:18.400Z,2.85
2023-05-24T17:09:22.339Z,2.40
2023-05-24T17:12:26.466Z,2.50
2023-05-24T17:15:30.555Z,2.50
2023-05-24T17:18:34.643Z,2.55
2023-05-24T17:21:38.680Z,2.60
2023-05-24T17:24:42.772Z,2.70
2023-05-24T17:27:46.948Z,2.40
2023-05-24T17:30:51.051Z,2.42
2023-05-24T17:33:57.390Z,2.60
2023-05-24T17:37:01.697Z,2.90
2023-05-24T17:40:06.745Z,2.97
2023-05-24T17:43:11.156Z,2.70
2023-05-24T17:46:16.748Z,3.03
2023-05-24T17:49:21.231Z,2.70
2023-05-24T17:52:25.270Z,2.95
2023-05-24T17:55:29.146Z,3.00
2023-05-24T17:58:36.297Z,3.08
2023-05-24T18:01:40.595Z,2.90
2023-05-24T18:04:44.586Z,3.03
2023-05-24T18:07:48.832Z,3.20
2023-05-24T18:10:53.153Z,3.45
2023-05-24T18:13:59.293Z,3.25
2023-05-24T18:17:03.437Z,3.65
2023-05-24T18:20:08.100Z,3.33
2023-05-24T18:23:12.481Z,2.78
2023-05-24T18:26:16.509Z,3.00
2023-05-24T18:29:20.704Z,3.22
2023-05-24T18:32:25.155Z,3.63
2023-05-24T18:35:29.600Z,2.85
2023-05-24T18:38:34.318Z,3.08
2023-05-24T18:41:38.327Z,3.13
2023-05-24T18:44:42.233Z,2.85
2023-05-24T18:47:46.165Z,2.80
2023-05-24T18:50:50.835Z,2.78
2023-05-24T18:53:55.101Z,3.33
2023-05-24T18:57:02.334Z,3.47
2023-05-24T19:00:07.297Z,3.10
2023-05-24T19:03:13.262Z,2.90
2023-05-24T19:06:17.873Z,3.15
2023-05-24T19:09:22.164Z,3.00
2023-05-24T19:12:26.543Z,3.13
2023-05-24T19:15:30.917Z,2.60
2023-05-24T19:18:35.255Z,2.70
2023-05-24T19:21:39.052Z,2.63
2023-05-24T19:24:43.259Z,2.97
2023-05-24T19:27:59.075Z,3.00
2023-05-24T19:31:04.365Z,3.00
2023-05-24T19:34:08.306Z,2.97
2023-05-24T19:37:12.453Z,2.83
2023-05-24T19:40:16.643Z,3.08
2023-05-24T19:43:20.873Z,2.90
2023-05-24T19:46:25.909Z,2.90
2023-05-24T19:49:30.464Z,2.90
2023-05-24T19:52:34.093Z,2.92
2023-05-24T19:55:37.904Z,3.45
2023-05-24T19:58:42.109Z,3.50
2023-05-24T20:01:46.626Z,3.70
2023-05-24T20:04:51.025Z,3.83
2023-05-24T20:07:55.606Z,3.40
2023-05-24T20:10:59.896Z,3.42
2023-05-24T20:14:04.374Z,3.63
2023-05-24T20:17:08.315Z,3.45
2023-05-24T20:20:12.477Z,3.20
2023-05-24T20:23:16.522Z,3.80
2023-05-24T20:26:20.947Z,3.40
2023-05-24T20:29:25.093Z,3.88
2023-05-24T20:32:29.269Z,3.50
2023-05-24T20:35:33.430Z,3.60
2023-05-24T20:38:39.421Z,3.75
2023-05-24T20:41:43.529Z,3.60
2023-05-24T20:44:47.579Z,3.72
2023-05-24T20:47:51.670Z,4.00
2023-05-24T20:50:56.376Z,3.75
2023-05-24T20:54:00.951Z,3.67
2023-05-24T20:57:05.212Z,3.22
2023-05-24T21:00:10.169Z,4.00
2023-05-24T21:03:14.287Z,4.50
2023-05-24T21:06:20.772Z,4.30
2023-05-24T21:09:24.912Z,4.10
2023-05-24T21:12:30.859Z,4.00
2023-05-24T21:15:35.803Z,4.57
2023-05-24T21:18:40.308Z,4.30
2023-05-24T21:21:44.571Z,3.60
2023-05-24T21:24:48.552Z,4.03
2023-05-24T21:27:52.838Z,3.72
2023-05-24T21:30:57.214Z,3.92
2023-05-24T21:34:01.201Z,3.78
2023-05-24T21:37:05.273Z,4.78
2023-05-24T21:40:09.714Z,4.13
2023-05-24T21:43:13.961Z,3.80
2023-05-24T21:46:18.176Z,3.95
2023-05-24T21:49:21.876Z,4.50
2023-05-24T21:52:25.799Z,4.10
2023-05-24T21:55:29.913Z,4.47
2023-05-24T21:58:33.647Z,3.60
2023-05-24T22:01:37.577Z,3.67
2023-05-24T22:04:41.840Z,4.32
2023-05-24T22:07:45.981Z,4.05
2023-05-24T22:10:50.085Z,4.05
2023-05-24T22:13:54.730Z,4.55
2023-05-24T22:16:58.639Z,4.10
2023-05-24T22:20:06.426Z,4.40
2023-05-24T22:23:11.953Z,4.50
2023-05-24T22:26:16.947Z,4.15
2023-05-24T22:29:21.000Z,3.97
2023-05-24T22:32:24.989Z,4.20
2023-05-24T22:35:29.447Z,4.32
2023-05-24T22:38:33.656Z,4.13
2023-05-24T22:41:37.696Z,5.15
2023-05-24T22:44:41.438Z,4.00
2023-05-24T22:47:49.008Z,4.57
2023-05-24T22:50:57.024Z,4.80
2023-05-24T22:54:01.046Z,3.92
2023-05-24T22:57:05.670Z,3.90
2023-05-24T23:00:11.562Z,4.32
2023-05-24T23:03:15.491Z,4.75
2023-05-24T23:06:21.183Z,4.35
2023-05-24T23:09:34.608Z,4.38
2023-05-24T23:15:46.869Z,4.88
2023-05-24T23:18:50.813Z,4.53
2023-05-24T23:21:57.013Z,5.13
2023-05-24T23:25:00.725Z,4.78
2023-05-24T23:28:05.319Z,4.72
2023-05-24T23:31:09.358Z,4.63
2023-05-24T23:34:13.124Z,4.70
2023-05-24T23:37:16.935Z,4.45
2023-05-24T23:40:21.323Z,4.60
2023-05-24T23:43:25.505Z,4.72
2023-05-24T23:46:29.282Z,5.47
2023-05-24T23:49:33.471Z,4.63
2023-05-24T23:52:37.928Z,4.80
2023-05-24T23:55:42.200Z,4.75
2023-05-24T23:58:46.869Z,4.78
